Time;durP1;ratioP1;P1;durP2;ratioP2;P2;SDS_P1;SDS_P2;PMS_P1;PMS_P2;Temp;Humidity;BMP_temperature;BMP_pressure;BME280_temperature;BME280_humidity;BME280_pressure;Samples;Min_cycle;Max_cycle;Signal;HPM_P1;HPM_P2
2023/03/14 00:00:29;;;;;;;32.40;5.68;;;10.40;62.20;;;;;;4112460;28;20066;-87
2023/03/14 00:02:30;;;;;;;34.85;4.72;;;10.40;62.30;;;;;;4138177;28;20073;-87
2023/03/14 00:04:31;;;;;;;31.17;4.57;;;10.30;62.30;;;;;;4109711;28;20122;-87
2023/03/14 00:06:32;;;;;;;30.55;4.50;;;10.30;62.40;;;;;;4115956;28;20078;-87
2023/03/14 00:08:38;;;;;;;41.15;5.05;;;10.30;62.40;;;;;;4143916;28;20021;-87
2023/03/14 00:10:39;;;;;;;37.30;4.75;;;10.20;62.40;;;;;;4108202;28;20034;-86
2023/03/14 00:12:41;;;;;;;27.25;4.90;;;10.30;62.50;;;;;;4138179;28;20025;-87
2023/03/14 00:14:43;;;;;;;30.88;5.35;;;10.20;62.50;;;;;;4109536;28;20026;-88
2023/03/14 00:16:47;;;;;;;27.83;4.57;;;10.20;62.60;;;;;;4111826;28;20054;-87
2023/03/14 00:18:47;;;;;;;;;;;10.20;62.90;;;;;;4128375;28;20050;-88
2023/03/14 00:20:48;;;;;;;51.28;6.10;;;10.30;63.00;;;;;;4138564;28;20422;-86
2023/03/14 00:22:49;;;;;;;35.40;5.20;;;10.20;62.80;;;;;;4123339;28;20034;-88
2023/03/14 00:24:50;;;;;;;32.42;4.95;;;10.20;63.00;;;;;;4141828;28;20038;-87
2023/03/14 00:26:51;;;;;;;34.70;5.00;;;10.10;63.00;;;;;;4142020;28;20034;-88
2023/03/14 00:28:53;;;;;;;36.92;4.70;;;10.10;63.20;;;;;;4135698;28;20026;-86
2023/03/14 00:31:00;;;;;;;37.30;5.53;;;10.10;63.30;;;;;;4139767;28;20523;-87
2023/03/14 00:33:03;;;;;;;33.83;4.85;;;10.20;63.40;;;;;;4141410;28;20033;-87
2023/03/14 00:35:05;;;;;;;35.13;5.53;;;10.20;63.60;;;;;;4126106;28;20031;-87
2023/03/14 00:37:07;;;;;;;41.03;5.63;;;10.10;63.50;;;;;;4127423;28;20100;-87
2023/03/14 00:39:08;;;;;;;35.70;5.70;;;10.10;63.70;;;;;;4127406;28;20030;-87
2023/03/14 00:41:14;;;;;;;31.58;4.35;;;10.10;63.80;;;;;;4111572;28;20040;-88
2023/03/14 00:43:50;;;;;;;37.95;5.25;;;10.00;63.80;;;;;;4128938;28;20019;-88
2023/03/14 00:45:52;;;;;;;40.85;6.05;;;10.00;64.10;;;;;;4077425;29;20059;-87
2023/03/14 00:47:55;;;;;;;33.20;4.65;;;10.10;64.30;;;;;;4119643;28;20061;-87
2023/03/14 00:49:57;;;;;;;43.55;5.45;;;10.10;64.40;;;;;;4112071;28;20030;-87
2023/03/14 00:51:57;;;;;;;34.72;4.55;;;10.00;64.40;;;;;;4141690;28;20407;-88
2023/03/14 00:53:59;;;;;;;39.20;5.90;;;10.10;64.80;;;;;;4127099;28;20045;-87
2023/03/14 00:56:07;;;;;;;31.97;4.60;;;10.10;64.80;;;;;;4140598;28;20041;-88
2023/03/14 00:58:10;;;;;;;37.15;5.00;;;10.00;65.30;;;;;;4126819;28;20520;-89
2023/03/14 01:00:12;;;;;;;33.80;4.55;;;10.00;65.70;;;;;;4125554;28;21746;-86
2023/03/14 01:02:13;;;;;;;34.03;4.95;;;9.90;65.90;;;;;;4140570;28;20037;-88
2023/03/14 01:04:14;;;;;;;34.40;4.75;;;9.90;65.90;;;;;;4111310;28;20024;-88
2023/03/14 01:06:35;;;;;;;35.13;4.95;;;9.90;66.10;;;;;;4140051;28;20044;-88
2023/03/14 01:08:58;;;;;;;34.72;5.43;;;10.00;66.30;;;;;;4124657;28;20457;-91
2023/03/14 01:11:25;;;;;;;38.88;5.20;;;9.90;66.20;;;;;;4135823;28;20350;-88
2023/03/14 02:34:24;;;;;;;31.70;4.68;;;9.20;72.20;;;;;;4134592;28;20471;-88
2023/03/14 02:36:49;;;;;;;33.28;4.50;;;9.20;71.90;;;;;;4127948;28;20609;-87
2023/03/14 02:39:38;;;;;;;36.47;4.43;;;9.30;71.90;;;;;;4140019;28;20061;-87
2023/03/14 02:41:59;;;;;;;40.80;4.95;;;9.30;71.80;;;;;;4128019;28;20030;-87
2023/03/14 02:44:02;;;;;;;30.58;3.80;;;9.40;71.80;;;;;;4140264;28;20018;-88
2023/03/14 02:46:23;;;;;;;29.73;4.90;;;9.30;71.80;;;;;;4141663;28;20478;-87
2023/03/14 02:48:55;;;;;;;39.63;5.28;;;9.40;71.70;;;;;;4138269;28;20518;-86
2023/03/14 02:51:16;;;;;;;30.10;4.05;;;9.30;71.50;;;;;;4141542;28;20424;-88
2023/03/14 02:53:38;;;;;;;30.05;4.15;;;9.30;71.40;;;;;;4143973;28;20057;-87
2023/03/14 02:55:59;;;;;;;29.33;3.80;;;9.40;71.40;;;;;;4132168;28;20034;-87
2023/03/14 02:58:20;;;;;;;30.75;4.10;;;9.50;71.30;;;;;;4126315;28;20448;-87
2023/03/14 03:00:41;;;;;;;25.08;3.65;;;9.40;71.20;;;;;;4137717;28;20492;-87
2023/03/14 03:03:02;;;;;;;37.17;3.90;;;9.40;71.10;;;;;;4143903;28;20439;-87
2023/03/14 03:05:23;;;;;;;27.13;4.10;;;9.40;71.00;;;;;;4128353;28;20501;-88
2023/03/14 03:07:44;;;;;;;31.17;3.83;;;9.40;71.10;;;;;;4128368;28;20026;-88
2023/03/14 03:10:05;;;;;;;29.38;4.35;;;9.40;71.00;;;;;;4126601;28;20559;-88
2023/03/14 03:12:06;;;;;;;28.92;3.83;;;9.40;70.90;;;;;;4139829;28;20268;-89
2023/03/14 03:14:06;;;;;;;24.67;4.22;;;9.40;70.60;;;;;;4110987;28;20037;-86
2023/03/14 03:16:07;;;;;;;24.55;4.05;;;9.50;71.10;;;;;;4138019;28;20088;-86
2023/03/14 03:18:09;;;;;;;24.63;4.40;;;9.40;71.00;;;;;;4126348;28;20026;-88
2023/03/14 03:20:13;;;;;;;22.02;3.20;;;9.50;71.20;;;;;;4123424;28;20030;-86
2023/03/14 03:22:13;;;;;;;28.38;4.10;;;9.40;71.00;;;;;;4127122;28;20092;-88
2023/03/14 03:24:17;;;;;;;27.90;4.13;;;9.50;71.10;;;;;;4111037;28;20123;-86
2023/03/14 03:26:18;;;;;;;34.05;4.03;;;9.40;71.00;;;;;;4110455;28;20031;-86
2023/03/14 03:28:20;;;;;;;34.28;4.40;;;9.50;71.80;;;;;;4107600;28;20520;-88
2023/03/14 03:30:21;;;;;;;29.15;4.43;;;9.50;71.00;;;;;;4139684;28;20022;-88
2023/03/14 03:32:22;;;;;;;22.23;4.07;;;9.50;71.00;;;;;;4109549;28;20030;-87
2023/03/14 03:34:23;;;;;;;30.25;4.10;;;9.40;71.00;;;;;;4122808;28;20054;-86
2023/03/14 03:36:25;;;;;;;25.73;4.50;;;9.50;71.00;;;;;;4112054;28;20026;-87
2023/03/14 03:38:28;;;;;;;29.05;4.03;;;9.60;71.00;;;;;;4107892;28;20126;-87
2023/03/14 03:40:29;;;;;;;29.38;3.90;;;9.60;71.00;;;;;;4126368;28;20034;-86
2023/03/14 03:42:30;;;;;;;29.08;4.57;;;9.50;70.90;;;;;;4144713;28;20026;-87
2023/03/14 03:44:30;;;;;;;26.38;4.05;;;9.60;71.00;;;;;;4140250;28;20026;-88
2023/03/14 03:46:42;;;;;;;23.90;3.28;;;9.60;70.90;;;;;;4112374;28;20060;-87
2023/03/14 03:49:03;;;;;;;28.98;4.03;;;9.60;70.80;;;;;;4136769;28;20088;-87
2023/03/14 03:51:05;;;;;;;23.38;3.85;;;9.60;70.70;;;;;;4126679;28;20491;-87
2023/03/14 03:53:26;;;;;;;24.33;4.13;;;9.60;70.60;;;;;;4138745;28;20021;-87
2023/03/14 03:55:47;;;;;;;23.52;4.00;;;9.60;70.60;;;;;;4125055;28;20244;-87
2023/03/14 03:58:08;;;;;;;34.45;4.38;;;9.50;70.40;;;;;;4138362;28;20077;-88
2023/03/14 04:00:28;;;;;;;27.40;3.70;;;9.70;70.50;;;;;;4137977;28;20350;-86
2023/03/14 04:02:49;;;;;;;24.95;3.83;;;9.70;70.40;;;;;;4138006;28;20458;-87
2023/03/14 04:05:09;;;;;;;22.48;3.90;;;9.70;70.30;;;;;;4141027;28;20093;-86
2023/03/14 04:07:33;;;;;;;25.48;3.83;;;9.70;70.20;;;;;;4123648;28;20129;-87
2023/03/14 04:09:54;;;;;;;26.75;3.65;;;9.70;70.10;;;;;;4126264;28;20026;-86
2023/03/14 04:12:15;;;;;;;20.58;3.15;;;9.80;70.10;;;;;;4126487;28;20041;-87
2023/03/14 04:14:35;;;;;;;17.77;3.88;;;9.70;70.00;;;;;;4138246;28;20057;-87
2023/03/14 04:16:56;;;;;;;19.05;3.30;;;9.70;69.80;;;;;;4138955;28;20054;-89
2023/03/14 04:19:17;;;;;;;25.83;3.53;;;9.80;69.80;;;;;;4136106;28;20350;-87
2023/03/14 04:21:40;;;;;;;15.40;2.90;;;9.80;69.60;;;;;;4128150;28;20042;-88
2023/03/14 04:23:48;;;;;;;17.13;2.60;;;9.80;69.50;;;;;;4125429;28;20129;-88
2023/03/14 04:25:50;;;;;;;27.45;3.53;;;9.80;69.50;;;;;;4125042;28;20077;-87
2023/03/14 04:27:50;;;;;;;22.95;3.08;;;9.80;69.40;;;;;;4110654;28;20019;-87
2023/03/14 04:29:51;;;;;;;20.67;3.00;;;9.80;69.40;;;;;;4138885;28;20037;-91
2023/03/14 04:31:55;;;;;;;18.33;3.08;;;9.70;69.30;;;;;;4124549;28;20066;-86
2023/03/14 04:33:55;;;;;;;24.75;3.35;;;9.70;69.20;;;;;;4121440;28;20034;-87
2023/03/14 04:35:56;;;;;;;32.72;3.80;;;9.80;69.20;;;;;;4125732;28;20524;-88
2023/03/14 04:37:57;;;;;;;33.38;3.95;;;9.80;69.10;;;;;;4144922;28;20029;-90
2023/03/14 04:40:00;;;;;;;23.05;3.42;;;9.70;69.20;;;;;;4141381;28;20088;-87
2023/03/14 04:42:01;;;;;;;21.73;3.17;;;9.80;69.20;;;;;;4128873;28;20030;-87
2023/03/14 04:45:09;;;;;;;29.00;3.58;;;9.80;69.20;;;;;;4129993;28;20034;-87
2023/03/14 04:47:12;;;;;;;15.85;2.70;;;9.70;69.20;;;;;;4122303;28;20034;-87
2023/03/14 04:49:15;;;;;;;22.30;3.30;;;9.80;69.20;;;;;;4119231;28;20042;-87
2023/03/14 04:51:16;;;;;;;21.65;4.20;;;9.80;69.50;;;;;;4105839;28;20066;-85
2023/03/14 04:53:18;;;;;;;24.02;4.00;;;9.80;69.60;;;;;;4109294;28;20038;-87
2023/03/14 04:55:18;;;;;;;25.90;3.40;;;9.80;69.80;;;;;;4098354;28;20134;-89
2023/03/14 04:57:19;;;;;;;17.50;3.33;;;9.80;69.90;;;;;;4121398;28;20030;-87
2023/03/14 04:59:20;;;;;;;16.63;2.90;;;9.80;70.10;;;;;;4123420;28;20057;-87
2023/03/14 05:01:21;;;;;;;22.30;3.28;;;9.70;70.50;;;;;;4109722;28;20078;-88
2023/03/14 05:03:24;;;;;;;21.13;3.20;;;9.60;70.70;;;;;;4125062;28;20050;-87
2023/03/14 05:05:46;;;;;;;22.17;3.67;;;9.60;70.70;;;;;;4132134;28;20034;-88
2023/03/14 05:08:06;;;;;;;21.67;3.50;;;9.60;70.80;;;;;;4128093;28;20049;-88
2023/03/14 05:10:27;;;;;;;22.55;3.72;;;9.60;71.10;;;;;;4109648;28;21515;-87
2023/03/14 05:12:48;;;;;;;20.63;3.40;;;9.50;71.50;;;;;;4121137;28;20034;-86
2023/03/14 05:15:00;;;;;;;15.98;3.35;;;9.50;71.80;;;;;;4126505;28;20038;-87
2023/03/14 05:17:21;;;;;;;24.00;3.55;;;9.50;72.10;;;;;;4114624;28;20053;-90
2023/03/14 05:19:22;;;;;;;29.65;3.67;;;9.30;72.10;;;;;;4110425;28;20194;-88
2023/03/14 05:21:49;;;;;;;20.95;3.50;;;9.40;73.30;;;;;;4123633;28;20081;-87
2023/03/14 05:24:10;;;;;;;26.00;3.95;;;9.30;72.60;;;;;;4128362;28;20030;-89
2023/03/14 05:26:32;;;;;;;25.20;3.22;;;9.20;72.90;;;;;;4130471;28;20528;-87
2023/03/14 05:28:52;;;;;;;20.40;3.80;;;9.10;72.70;;;;;;4132785;28;20034;-88
2023/03/14 05:31:13;;;;;;;25.13;3.60;;;9.20;73.20;;;;;;4139396;28;20084;-88
2023/03/14 05:33:39;;;;;;;19.70;3.15;;;9.10;73.40;;;;;;4131566;28;20035;-90
2023/03/14 05:36:05;;;;;;;16.95;3.47;;;9.10;73.40;;;;;;4146048;28;20026;-90
2023/03/14 05:38:26;;;;;;;26.70;4.15;;;9.00;73.60;;;;;;4128165;28;20232;-90
2023/03/14 05:40:27;;;;;;;20.38;3.25;;;9.10;73.90;;;;;;4129733;28;20026;-89
2023/03/14 05:42:28;;;;;;;20.15;3.25;;;9.00;74.10;;;;;;4130211;28;20707;-88
2023/03/14 05:44:29;;;;;;;27.23;3.58;;;9.00;74.80;;;;;;4140886;28;20384;-89
2023/03/14 05:46:32;;;;;;;23.20;4.75;;;8.90;74.80;;;;;;4108586;28;20023;-87
2023/03/14 05:48:33;;;;;;;19.42;3.30;;;9.00;75.00;;;;;;4127938;28;20518;-89
2023/03/14 05:50:34;;;;;;;22.00;3.30;;;8.80;75.00;;;;;;4125898;28;20061;-89
2023/03/14 05:52:35;;;;;;;18.63;3.38;;;8.90;75.30;;;;;;4124970;28;20041;-90
2023/03/14 05:54:36;;;;;;;17.33;3.22;;;8.80;75.40;;;;;;4125085;28;20034;-90
2023/03/14 05:56:36;;;;;;;18.10;2.78;;;8.80;75.60;;;;;;4137888;28;20037;-88
2023/03/14 05:58:46;;;;;;;18.08;3.17;;;8.90;75.50;;;;;;4121038;28;20092;-89
2023/03/14 06:00:56;;;;;;;20.40;2.88;;;8.90;75.90;;;;;;4141809;28;20022;-89
2023/03/14 06:02:56;;;;;;;18.17;3.35;;;8.80;76.00;;;;;;4113514;28;20030;-88
2023/03/14 06:05:07;;;;;;;21.52;4.03;;;8.90;75.90;;;;;;4119958;28;20023;-88
2023/03/14 06:07:08;;;;;;;19.85;3.58;;;8.80;76.00;;;;;;4111335;28;20508;-88
2023/03/14 06:09:11;;;;;;;20.52;4.13;;;8.80;76.10;;;;;;4140458;28;20034;-85
2023/03/14 06:11:12;;;;;;;21.48;3.33;;;8.90;76.40;;;;;;4109699;28;20110;-89
2023/03/14 06:13:15;;;;;;;25.58;4.28;;;8.70;76.30;;;;;;4136448;28;20037;-87
2023/03/14 06:15:35;;;;;;;20.23;3.60;;;8.70;76.50;;;;;;4136097;28;20046;-86
2023/03/14 06:17:59;;;;;;;21.95;4.85;;;8.70;76.60;;;;;;4140323;28;20030;-86
2023/03/14 06:20:19;;;;;;;16.05;3.95;;;8.70;76.80;;;;;;4126225;28;20038;-87
2023/03/14 06:22:41;;;;;;;28.73;3.58;;;8.70;76.90;;;;;;4141931;28;20227;-86
2023/03/14 06:25:03;;;;;;;21.25;3.67;;;8.70;77.10;;;;;;4137734;28;20161;-86
2023/03/14 06:27:24;;;;;;;18.50;3.70;;;8.70;77.10;;;;;;4139576;28;20052;-87
2023/03/14 06:29:44;;;;;;;18.80;3.20;;;8.70;77.10;;;;;;4126051;28;20506;-87
2023/03/14 06:32:05;;;;;;;13.68;2.97;;;8.70;77.40;;;;;;4136706;28;20026;-87
2023/03/14 06:34:06;;;;;;;14.18;3.22;;;8.70;77.50;;;;;;4130645;28;20073;-85
2023/03/14 06:36:07;;;;;;;21.98;3.65;;;8.60;77.60;;;;;;4125638;28;20040;-87
2023/03/14 06:38:07;;;;;;;16.58;2.55;;;8.60;77.60;;;;;;4137871;28;20116;-88
2023/03/14 06:40:10;;;;;;;16.65;3.20;;;8.60;77.60;;;;;;4141737;28;20026;-87
2023/03/14 06:42:15;;;;;;;19.40;3.25;;;8.60;78.00;;;;;;4127670;28;20440;-87
2023/03/14 06:44:16;;;;;;;16.38;3.40;;;8.70;78.30;;;;;;4121843;28;20475;-86
2023/03/14 06:46:16;;;;;;;13.43;2.78;;;8.60;78.60;;;;;;4139060;28;20026;-86
2023/03/14 06:48:18;;;;;;;11.85;2.50;;;8.70;78.70;;;;;;4137939;28;20026;-86
2023/03/14 06:50:19;;;;;;;13.13;1.88;;;8.70;78.70;;;;;;4139022;28;20038;-85
2023/03/14 06:52:20;;;;;;;13.95;2.25;;;8.60;79.30;;;;;;4126569;28;20385;-85
2023/03/14 06:54:20;;;;;;;12.63;2.97;;;8.60;78.90;;;;;;4121731;28;20117;-87
2023/03/14 06:56:21;;;;;;;10.02;2.22;;;8.50;79.00;;;;;;4133905;28;20030;-85
2023/03/14 06:58:22;;;;;;;10.00;2.22;;;8.60;78.80;;;;;;4127759;28;20031;-86
2023/03/14 07:00:23;;;;;;;7.90;1.73;;;8.50;78.70;;;;;;4123373;28;20037;-86
2023/03/14 07:02:23;;;;;;;8.65;1.83;;;8.60;78.80;;;;;;4125856;28;20555;-86
2023/03/14 07:04:37;;;;;;;7.65;1.67;;;8.60;78.70;;;;;;4126588;28;20072;-88
2023/03/14 07:06:57;;;;;;;6.60;1.40;;;8.70;78.90;;;;;;4135387;28;20103;-86
2023/03/14 07:09:18;;;;;;;3.88;1.13;;;8.60;78.70;;;;;;4125106;28;20048;-86
2023/03/14 07:11:19;;;;;;;12.77;1.63;;;8.60;79.40;;;;;;4135989;28;20658;-86
2023/03/14 07:13:40;;;;;;;6.38;1.35;;;8.60;78.70;;;;;;4136421;28;20457;-88
2023/03/14 07:16:00;;;;;;;11.45;1.58;;;8.50;78.60;;;;;;4127581;28;20022;-86
2023/03/14 07:18:21;;;;;;;4.72;0.80;;;8.50;78.70;;;;;;4130990;28;20037;-85
2023/03/14 07:20:42;;;;;;;3.35;0.60;;;8.50;78.40;;;;;;4137814;28;20033;-85
2023/03/14 07:23:03;;;;;;;3.03;0.70;;;8.40;75.80;;;;;;4126625;28;20111;-86
2023/03/14 07:25:23;;;;;;;2.35;0.57;;;8.30;74.30;;;;;;4129468;28;20040;-88
2023/03/14 07:27:27;;;;;;;5.65;0.50;;;8.10;74.00;;;;;;4125348;28;20018;-86
2023/03/14 07:29:28;;;;;;;1.38;0.35;;;8.10;74.10;;;;;;4139789;28;20160;-86
2023/03/14 07:31:29;;;;;;;4.85;0.63;;;7.80;73.90;;;;;;4109852;28;20034;-88
2023/03/14 07:33:50;;;;;;;1.30;0.30;;;7.70;73.70;;;;;;4127355;28;20122;-87
2023/03/14 07:36:11;;;;;;;2.65;0.60;;;7.50;73.70;;;;;;4138988;28;20031;-87
2023/03/14 07:38:32;;;;;;;3.30;0.85;;;7.40;73.80;;;;;;4123307;28;20047;-86
2023/03/14 07:40:33;;;;;;;2.97;0.70;;;7.20;73.70;;;;;;4138663;28;20033;-86
2023/03/14 07:42:57;;;;;;;1.83;0.47;;;6.90;73.30;;;;;;4126049;28;20093;-87
2023/03/14 07:45:18;;;;;;;1.48;0.50;;;6.90;73.60;;;;;;4142537;28;20036;-86
2023/03/14 07:47:23;;;;;;;3.85;0.63;;;6.70;73.30;;;;;;4127329;28;20119;-87
2023/03/14 07:49:40;;;;;;;4.22;0.80;;;6.60;73.20;;;;;;4124241;28;20045;-85
2023/03/14 07:52:01;;;;;;;5.63;0.82;;;6.30;73.20;;;;;;4128664;28;20061;-88
2023/03/14 07:54:22;;;;;;;3.53;0.70;;;6.20;73.30;;;;;;4127223;28;20210;-87
2023/03/14 07:56:43;;;;;;;4.10;0.68;;;6.20;73.60;;;;;;4136035;28;20104;-86
2023/03/14 07:59:03;;;;;;;5.25;0.73;;;5.90;73.40;;;;;;4133994;28;20041;-86
2023/03/14 08:01:25;;;;;;;6.93;1.15;;;5.80;73.60;;;;;;4128008;28;20034;-88
2023/03/14 08:03:45;;;;;;;4.05;0.65;;;5.70;73.60;;;;;;4123433;28;20107;-87
2023/03/14 08:06:06;;;;;;;7.50;0.80;;;5.50;73.50;;;;;;4132545;28;20038;-87
2023/03/14 08:08:27;;;;;;;7.95;0.95;;;5.40;73.70;;;;;;4131114;28;20038;-87
2023/03/14 08:10:48;;;;;;;10.20;1.35;;;5.30;73.90;;;;;;4141194;28;20030;-87
2023/03/14 08:13:10;;;;;;;8.32;1.27;;;5.20;73.80;;;;;;4139697;28;20030;-85
2023/03/14 08:15:10;;;;;;;6.78;1.15;;;5.20;73.70;;;;;;4109756;28;20027;-86
2023/03/14 08:17:11;;;;;;;6.53;0.82;;;5.10;73.50;;;;;;4142253;28;20037;-87
2023/03/14 08:19:12;;;;;;;9.15;1.48;;;4.80;72.90;;;;;;4129725;28;20125;-87
2023/03/14 08:21:13;;;;;;;9.23;1.02;;;4.70;73.00;;;;;;4140985;28;20089;-87
2023/03/14 08:23:14;;;;;;;3.85;1.15;;;4.70;72.90;;;;;;4139714;28;20032;-86
2023/03/14 08:25:15;;;;;;;6.57;0.80;;;4.60;73.00;;;;;;4132258;28;20045;-86
2023/03/14 08:27:16;;;;;;;6.15;1.00;;;4.60;73.10;;;;;;4112091;28;20026;-89
2023/03/14 08:29:16;;;;;;;5.97;1.02;;;4.50;73.20;;;;;;4140428;28;20539;-86
2023/03/14 08:31:17;;;;;;;4.22;0.63;;;4.40;73.40;;;;;;4124435;28;20057;-87
2023/03/14 08:33:18;;;;;;;6.50;0.77;;;4.30;73.60;;;;;;4137646;28;20030;-87
2023/03/14 08:35:19;;;;;;;7.80;0.82;;;4.30;73.90;;;;;;4111787;28;20117;-86
2023/03/14 08:37:20;;;;;;;2.00;0.77;;;4.20;74.10;;;;;;4108782;28;20027;-86
2023/03/14 08:39:20;;;;;;;3.45;0.68;;;4.20;74.40;;;;;;4136687;28;20022;-87
2023/03/14 08:41:21;;;;;;;4.50;0.70;;;4.20;74.60;;;;;;4139503;28;20022;-86
2023/03/14 08:43:21;;;;;;;3.50;0.55;;;4.10;74.90;;;;;;4127959;28;20023;-87
2023/03/14 08:45:28;;;;;;;2.97;0.55;;;4.10;75.00;;;;;;4136912;28;20026;-87
2023/03/14 08:47:29;;;;;;;2.80;0.68;;;4.10;75.00;;;;;;4143213;28;20030;-87
2023/03/14 08:49:30;;;;;;;4.07;0.50;;;4.20;75.10;;;;;;4139309;28;20097;-87
2023/03/14 08:51:30;;;;;;;1.73;0.70;;;4.10;74.90;;;;;;4136820;28;20037;-85
2023/03/14 08:53:31;;;;;;;3.10;0.63;;;4.00;74.60;;;;;;4139668;28;20128;-88
2023/03/14 08:55:32;;;;;;;2.45;0.70;;;4.00;74.40;;;;;;4102295;28;1129405;-86
2023/03/14 08:57:32;;;;;;;2.17;0.50;;;3.90;74.40;;;;;;4136266;28;20018;-87
2023/03/14 08:59:33;;;;;;;1.75;0.50;;;3.90;74.40;;;;;;4138837;28;20052;-86
2023/03/14 09:01:34;;;;;;;1.73;0.77;;;3.90;74.70;;;;;;4126860;28;20026;-88
2023/03/14 09:03:37;;;;;;;2.72;0.52;;;3.80;74.80;;;;;;4108936;28;20050;-87
2023/03/14 09:05:51;;;;;;;1.15;0.50;;;3.80;74.90;;;;;;4120919;28;20030;-87
2023/03/14 09:08:04;;;;;;;3.88;0.80;;;3.80;75.10;;;;;;4139267;28;20511;-87
2023/03/14 09:10:24;;;;;;;5.00;0.63;;;3.70;75.00;;;;;;4142049;28;20030;-87
2023/03/14 09:12:45;;;;;;;5.47;0.77;;;3.70;75.20;;;;;;4135346;28;20030;-87
2023/03/14 09:15:07;;;;;;;6.90;1.30;;;3.80;75.50;;;;;;4123322;28;20034;-87
2023/03/14 09:17:27;;;;;;;4.10;0.75;;;3.70;75.50;;;;;;4140185;28;20030;-86
2023/03/14 09:19:48;;;;;;;6.53;0.88;;;3.60;75.40;;;;;;4142316;28;20041;-86
2023/03/14 09:22:09;;;;;;;7.22;1.13;;;3.70;75.90;;;;;;4140197;28;20076;-87
2023/03/14 09:24:23;;;;;;;7.75;0.95;;;3.60;75.10;;;;;;4129504;28;20049;-86
2023/03/14 09:26:44;;;;;;;7.75;1.27;;;3.50;75.80;;;;;;4139647;28;20099;-87
2023/03/14 09:29:04;;;;;;;4.97;0.90;;;3.50;75.30;;;;;;4128721;28;20034;-87
2023/03/14 09:31:09;;;;;;;7.85;1.58;;;3.50;75.40;;;;;;4106287;28;20452;-86
2023/03/14 09:33:29;;;;;;;8.30;0.98;;;3.50;75.30;;;;;;4126030;28;20069;-87
2023/03/14 09:35:50;;;;;;;8.13;0.93;;;3.50;75.60;;;;;;4140084;28;20054;-87
2023/03/14 09:38:11;;;;;;;9.23;1.10;;;3.50;75.40;;;;;;4130117;28;20034;-86
2023/03/14 09:40:35;;;;;;;10.95;1.35;;;3.60;75.50;;;;;;4137356;28;20029;-85
2023/03/14 09:42:55;;;;;;;;;;;3.50;75.50;;;;;;4130428;28;20110;-86
2023/03/14 09:45:30;;;;;;;10.98;1.30;;;3.50;75.30;;;;;;4126558;28;19910;-87
2023/03/14 09:47:52;;;;;;;10.90;1.25;;;3.50;75.20;;;;;;4129995;28;20149;-86
2023/03/14 09:50:14;;;;;;;5.55;1.00;;;3.40;75.30;;;;;;4138461;28;20030;-86
2023/03/14 09:52:39;;;;;;;9.32;0.95;;;3.50;75.30;;;;;;4136752;28;20184;-87
2023/03/14 09:54:51;;;;;;;6.38;1.23;;;3.50;75.50;;;;;;4107306;28;20023;-86
2023/03/14 09:56:53;;;;;;;4.85;0.85;;;3.50;75.70;;;;;;4108990;28;20102;-87
2023/03/14 09:58:59;;;;;;;9.52;1.63;;;3.50;75.90;;;;;;4126385;28;20117;-86
2023/03/14 10:01:01;;;;;;;9.90;1.55;;;3.50;76.00;;;;;;4122990;28;20186;-87
2023/03/14 10:03:22;;;;;;;9.52;1.75;;;3.50;76.00;;;;;;4127425;28;20050;-87
2023/03/14 10:05:25;;;;;;;6.93;1.35;;;3.50;76.00;;;;;;4110648;28;20035;-86
2023/03/14 10:07:29;;;;;;;5.88;1.10;;;3.60;75.80;;;;;;4127528;28;20027;-85
2023/03/14 10:09:30;;;;;;;12.50;1.40;;;3.60;75.80;;;;;;4140332;28;20034;-89
2023/03/14 10:11:30;;;;;;;12.40;1.45;;;3.70;76.10;;;;;;4137983;28;20028;-88
2023/03/14 10:13:31;;;;;;;8.48;1.42;;;3.70;76.20;;;;;;4135095;28;20466;-87
2023/03/14 10:15:33;;;;;;;15.45;1.38;;;3.70;76.50;;;;;;4137893;28;20030;-86
2023/03/14 10:17:50;;;;;;;8.00;1.30;;;3.70;76.40;;;;;;4135596;28;20397;-88
2023/03/14 10:19:53;;;;;;;13.88;1.50;;;3.70;76.40;;;;;;4110052;28;20031;-87
2023/03/14 10:21:54;;;;;;;8.67;1.27;;;3.70;76.20;;;;;;4124834;28;20385;-88
2023/03/14 10:24:06;;;;;;;12.63;1.60;;;3.70;76.30;;;;;;4119483;28;20034;-87
2023/03/14 10:26:18;;;;;;;7.68;1.42;;;3.80;76.40;;;;;;4135030;28;20033;-87
2023/03/14 10:28:26;;;;;;;9.23;1.20;;;3.80;76.40;;;;;;4109956;28;20027;-87
2023/03/14 10:30:33;;;;;;;12.45;1.42;;;3.80;76.70;;;;;;4123807;28;20107;-87
2023/03/14 10:32:41;;;;;;;17.48;1.77;;;3.90;76.80;;;;;;4137819;28;20022;-87
2023/03/14 10:34:41;;;;;;;13.40;1.63;;;3.90;76.80;;;;;;4138339;28;20033;-89
2023/03/14 10:36:42;;;;;;;12.88;1.50;;;4.00;77.20;;;;;;4123509;28;20170;-87
2023/03/14 10:39:25;;;;;;;19.85;2.35;;;4.10;77.10;;;;;;4120655;28;20907;-87
2023/03/14 10:41:33;;;;;;;11.88;1.30;;;4.10;76.80;;;;;;4138657;28;20026;-88
2023/03/14 10:43:58;;;;;;;13.60;2.03;;;4.20;76.80;;;;;;4145247;28;20250;-87
2023/03/14 10:46:05;;;;;;;14.50;2.20;;;4.30;76.60;;;;;;4130935;28;20160;-87
2023/03/14 10:48:32;;;;;;;19.38;2.05;;;4.40;75.90;;;;;;4139812;28;20026;-86
2023/03/14 10:51:07;;;;;;;22.15;1.98;;;4.30;74.80;;;;;;4139113;28;20026;-87
2023/03/14 10:53:38;;;;;;;16.67;2.03;;;4.40;74.40;;;;;;4137524;28;20076;-87
2023/03/14 10:56:02;;;;;;;16.63;1.98;;;4.50;73.70;;;;;;4140767;28;20049;-87
2023/03/14 10:58:29;;;;;;;17.48;2.17;;;4.40;73.90;;;;;;4141549;28;20034;-87
2023/03/14 11:01:17;;;;;;;10.77;1.52;;;4.60;74.30;;;;;;4139111;28;20041;-88
2023/03/14 11:03:47;;;;;;;19.85;2.17;;;4.60;74.30;;;;;;4141443;28;20041;-88
2023/03/14 11:06:28;;;;;;;15.07;1.80;;;4.70;74.00;;;;;;4125704;28;20030;-87
2023/03/14 11:08:47;;;;;;;21.73;2.15;;;4.70;73.00;;;;;;4110216;28;20043;-88
2023/03/14 11:10:54;;;;;;;18.73;1.80;;;4.80;73.10;;;;;;4134031;28;20030;-88
2023/03/14 11:13:22;;;;;;;19.13;2.00;;;4.80;72.50;;;;;;4139343;28;20033;-88
2023/03/14 11:15:51;;;;;;;18.90;1.80;;;4.80;72.10;;;;;;4124738;28;20165;-86
2023/03/14 11:18:02;;;;;;;15.70;1.92;;;4.80;70.00;;;;;;4127016;28;20041;-89
2023/03/14 11:20:32;;;;;;;12.70;1.80;;;4.70;67.90;;;;;;4141639;28;20025;-87
2023/03/14 11:22:39;;;;;;;10.73;1.90;;;4.60;67.40;;;;;;4136755;28;20531;-87
2023/03/14 11:25:11;;;;;;;19.17;1.70;;;4.50;67.30;;;;;;4138905;28;20109;-88
2023/03/14 11:27:21;;;;;;;8.43;1.85;;;4.50;67.60;;;;;;4124823;28;20034;-88
2023/03/14 11:29:52;;;;;;;16.60;1.38;;;4.60;67.90;;;;;;4138996;28;20022;-88
2023/03/14 11:31:59;;;;;;;17.48;2.30;;;4.50;67.90;;;;;;4140845;28;20527;-88
2023/03/14 11:34:13;;;;;;;20.88;1.63;;;4.50;66.50;;;;;;4125150;28;20128;-88
2023/03/14 11:36:37;;;;;;;9.32;1.55;;;4.50;66.80;;;;;;4138433;28;20030;-87
2023/03/14 11:38:41;;;;;;;14.05;1.95;;;4.60;66.10;;;;;;4138343;28;20504;-88
2023/03/14 11:40:44;;;;;;;12.35;2.03;;;4.70;66.70;;;;;;4128149;28;20022;-88
2023/03/14 11:43:08;;;;;;;16.10;2.17;;;4.60;66.30;;;;;;4123060;28;20031;-87
2023/03/14 11:45:36;;;;;;;19.42;2.38;;;4.60;65.80;;;;;;4116964;28;20094;-87
2023/03/14 11:47:48;;;;;;;17.10;2.33;;;4.70;65.80;;;;;;4139423;28;20116;-88
2023/03/14 11:50:18;;;;;;;16.70;1.52;;;4.60;65.10;;;;;;4129859;28;20424;-87
2023/03/14 11:52:32;;;;;;;18.38;2.28;;;4.60;63.60;;;;;;4136044;28;20025;-88
2023/03/14 11:54:42;;;;;;;16.63;1.58;;;4.70;63.60;;;;;;4143947;28;20034;-86
2023/03/14 11:56:53;;;;;;;18.70;2.00;;;4.60;63.40;;;;;;4143387;28;20034;-88
2023/03/14 11:59:31;;;;;;;15.18;1.75;;;4.70;62.70;;;;;;4144769;28;20033;-87
2023/03/14 12:02:24;;;;;;;20.90;2.85;;;4.70;63.00;;;;;;4125121;28;20022;-88
2023/03/14 12:05:19;;;;;;;15.05;2.88;;;4.70;62.70;;;;;;4127561;28;20081;-89
2023/03/14 12:08:07;;;;;;;16.55;1.70;;;4.80;61.60;;;;;;4109455;28;20038;-86
2023/03/14 12:10:24;;;;;;;13.07;1.55;;;4.70;59.70;;;;;;4095593;28;20054;-87
2023/03/14 12:12:46;;;;;;;13.32;1.52;;;4.80;59.40;;;;;;4139659;28;20037;-87
2023/03/14 12:15:19;;;;;;;12.18;1.77;;;4.90;59.80;;;;;;4132491;28;20049;-86
2023/03/14 12:17:46;;;;;;;20.65;2.05;;;4.90;58.60;;;;;;4129489;28;20030;-85
2023/03/14 12:20:00;;;;;;;12.25;1.73;;;4.80;58.10;;;;;;4129296;28;20066;-86
2023/03/14 12:22:34;;;;;;;13.45;2.35;;;4.80;57.40;;;;;;4144463;28;20096;-88
2023/03/14 12:25:02;;;;;;;13.85;1.90;;;4.80;57.00;;;;;;4143479;28;20058;-88
2023/03/14 12:28:02;;;;;;;15.02;1.50;;;4.90;57.20;;;;;;4142532;28;20531;-88
2023/03/14 12:30:28;;;;;;;11.27;1.17;;;4.90;58.30;;;;;;4143535;28;20388;-86
2023/03/14 12:33:17;;;;;;;7.13;1.13;;;5.00;58.20;;;;;;4131532;28;20074;-86
2023/03/14 12:35:41;;;;;;;13.18;1.40;;;5.00;56.50;;;;;;4141970;28;20034;-88
2023/03/14 12:38:09;;;;;;;13.23;1.80;;;5.10;56.30;;;;;;4139393;28;20523;-88
2023/03/14 12:40:35;;;;;;;9.98;1.17;;;5.10;56.70;;;;;;4124427;28;20026;-87
2023/03/14 12:43:01;;;;;;;26.90;2.95;;;5.20;56.60;;;;;;4132830;28;20031;-88
2023/03/14 12:45:23;;;;;;;19.05;1.92;;;5.20;55.50;;;;;;4141531;28;20034;-87
2023/03/14 12:48:09;;;;;;;17.25;2.08;;;5.30;55.50;;;;;;4141131;28;20029;-86
2023/03/14 12:50:53;;;;;;;19.90;2.03;;;5.30;55.40;;;;;;4140617;28;20034;-86
2023/03/14 12:53:32;;;;;;;11.90;1.52;;;5.30;55.20;;;;;;4132122;28;20040;-87